createdAt,value
2018-12-15T00:01:44.092Z,82.60
2018-12-15T00:04:14.367Z,82.85
2018-12-15T00:06:45.245Z,83.38
2018-12-15T00:09:16.001Z,82.65
2018-12-15T00:11:46.013Z,82.66
2018-12-15T00:14:16.692Z,83.04
2018-12-15T00:16:47.081Z,83.57
2018-12-15T00:19:17.649Z,82.96
2018-12-15T00:21:47.802Z,83.29
2018-12-15T00:24:18.020Z,83.18
2018-12-15T00:26:48.038Z,83.45
2018-12-15T00:29:18.409Z,83.09
2018-12-15T00:31:49.705Z,83.16
2018-12-15T00:34:19.884Z,82.29
2018-12-15T00:36:51.445Z,83.47
2018-12-15T00:39:21.995Z,83.22
2018-12-15T00:41:52.294Z,83.70
2018-12-15T00:44:22.891Z,83.11
2018-12-15T00:46:53.758Z,82.94
2018-12-15T00:49:23.879Z,83.39
2018-12-15T00:51:55.106Z,83.25
2018-12-15T00:54:25.913Z,83.05
2018-12-15T00:56:55.889Z,83.18
2018-12-15T00:59:26.604Z,83.53
2018-12-15T01:01:56.780Z,83.88
2018-12-15T01:04:26.819Z,82.95
2018-12-15T01:06:56.981Z,83.06
2018-12-15T01:09:27.130Z,82.90
2018-12-15T01:11:57.305Z,83.08
2018-12-15T01:14:27.435Z,82.29
2018-12-15T01:16:57.595Z,82.41
2018-12-15T01:19:28.434Z,83.17
2018-12-15T01:21:58.481Z,82.82
2018-12-15T01:24:29.293Z,82.36
2018-12-15T01:26:59.562Z,82.74
2018-12-15T01:29:30.590Z,82.87
2018-12-15T01:32:00.833Z,82.98
2018-12-15T01:34:31.081Z,82.40
2018-12-15T01:37:01.680Z,83.25
2018-12-15T01:39:32.781Z,82.37
2018-12-15T01:42:02.833Z,82.86
2018-12-15T01:44:33.464Z,83.07
2018-12-15T01:47:03.660Z,83.09
2018-12-15T01:49:33.688Z,83.55
2018-12-15T01:52:03.954Z,82.70
2018-12-15T01:54:34.083Z,82.60
2018-12-15T01:57:05.592Z,82.01
2018-12-15T01:59:35.633Z,82.97
2018-12-15T02:02:05.741Z,82.46
2018-12-15T02:04:35.918Z,83.18
2018-12-15T02:07:06.722Z,83.52
2018-12-15T02:09:36.934Z,82.85
2018-12-15T02:12:07.478Z,82.81
2018-12-15T02:14:37.718Z,83.28
2018-12-15T02:17:07.915Z,82.51
2018-12-15T02:19:38.071Z,82.72
2018-12-15T02:22:08.962Z,83.23
2018-12-15T02:24:39.193Z,82.46
2018-12-15T02:27:09.245Z,82.67
2018-12-15T02:29:39.452Z,82.96
2018-12-15T02:32:09.524Z,82.70
2018-12-15T02:34:40.107Z,83.14
2018-12-15T02:37:10.207Z,83.41
2018-12-15T02:39:40.417Z,82.28
2018-12-15T02:42:10.501Z,82.51
2018-12-15T02:44:41.442Z,82.63
2018-12-15T02:47:11.377Z,83.68
2018-12-15T02:49:41.554Z,83.73
2018-12-15T02:52:12.098Z,83.30
2018-12-15T02:54:42.886Z,83.77
2018-12-15T02:57:13.702Z,83.55
2018-12-15T02:59:44.566Z,83.65
2018-12-15T03:02:14.777Z,83.11
2018-12-15T03:04:44.877Z,83.53
2018-12-15T03:07:14.991Z,83.52
2018-12-15T03:09:45.178Z,83.66
2018-12-15T03:12:15.261Z,83.69
2018-12-15T03:14:46.776Z,82.69
2018-12-15T03:17:17.945Z,83.20
2018-12-15T03:19:48.883Z,84.16
2018-12-15T03:22:19.596Z,83.76
2018-12-15T03:24:50.371Z,83.51
2018-12-15T03:27:20.469Z,83.80
2018-12-15T03:29:50.835Z,83.30
2018-12-15T03:32:21.047Z,83.34
2018-12-15T03:34:51.328Z,84.21
2018-12-15T03:37:21.531Z,84.31
2018-12-15T03:39:51.574Z,84.00
2018-12-15T03:42:22.671Z,84.17
2018-12-15T03:44:52.758Z,83.88
2018-12-15T03:47:24.050Z,83.88
2018-12-15T03:49:54.215Z,84.31
2018-12-15T03:52:25.573Z,83.96
2018-12-15T03:54:55.792Z,84.18
2018-12-15T03:57:25.877Z,84.60
2018-12-15T03:59:55.963Z,84.46
2018-12-15T04:02:26.871Z,84.64
2018-12-15T04:04:57.941Z,84.75
2018-12-15T04:07:28.032Z,84.74
2018-12-15T04:09:58.094Z,84.53
2018-12-15T04:12:28.305Z,84.02
2018-12-15T04:14:58.688Z,83.78
2018-12-15T04:17:29.327Z,84.56
2018-12-15T04:19:59.344Z,83.82
2018-12-15T04:22:29.427Z,83.94
2018-12-15T04:25:01.018Z,84.85
2018-12-15T04:27:31.054Z,84.99
2018-12-15T04:30:01.627Z,84.53
2018-12-15T04:32:31.785Z,84.70
2018-12-15T04:35:02.541Z,84.58
2018-12-15T04:37:32.570Z,84.93
2018-12-15T04:40:03.330Z,85.29
2018-12-15T04:42:33.230Z,84.42
2018-12-15T04:45:04.366Z,84.91
2018-12-15T04:47:34.580Z,84.93
2018-12-15T04:50:05.094Z,85.08
2018-12-15T04:52:35.171Z,84.46
2018-12-15T04:55:05.880Z,84.22
2018-12-15T04:57:36.510Z,84.59
2018-12-15T05:00:08.197Z,84.66
2018-12-15T05:02:43.811Z,83.91
2018-12-15T05:05:11.291Z,84.54
2018-12-15T05:07:41.415Z,84.70
2018-12-15T05:10:11.546Z,84.55
2018-12-15T05:12:41.673Z,84.31
2018-12-15T05:15:11.735Z,83.93
2018-12-15T05:17:41.690Z,83.64
2018-12-15T05:20:11.780Z,83.38
2018-12-15T05:22:41.906Z,83.25
2018-12-15T05:25:12.999Z,83.03
2018-12-15T05:27:44.039Z,83.61
2018-12-15T05:30:14.227Z,83.80
2018-12-15T05:32:44.203Z,82.77
2018-12-15T05:35:14.455Z,82.79
2018-12-15T05:37:45.151Z,83.25
2018-12-15T05:40:15.845Z,83.04
2018-12-15T05:42:46.115Z,83.63
2018-12-15T05:45:17.420Z,83.09
2018-12-15T05:47:47.556Z,83.25
2018-12-15T05:50:18.060Z,83.14
2018-12-15T05:52:48.967Z,83.86
2018-12-15T05:55:20.040Z,83.23
2018-12-15T05:57:50.231Z,83.14
2018-12-15T06:00:20.534Z,83.09
2018-12-15T06:02:50.833Z,83.77
2018-12-15T06:05:21.232Z,83.84
2018-12-15T06:07:54.539Z,83.66
2018-12-15T06:10:24.560Z,82.95
2018-12-15T06:12:54.552Z,83.40
2018-12-15T06:15:24.644Z,83.05
2018-12-15T06:17:54.688Z,82.65
2018-12-15T06:20:25.010Z,82.88
2018-12-15T06:22:55.126Z,82.80
2018-12-15T06:25:25.865Z,82.60
2018-12-15T06:27:55.936Z,82.23
2018-12-15T06:30:26.685Z,82.41
2018-12-15T06:32:57.262Z,82.00
2018-12-15T06:35:27.332Z,82.40
2018-12-15T06:37:57.442Z,82.22
2018-12-15T06:40:27.686Z,81.81
2018-12-15T06:42:57.985Z,81.96
2018-12-15T06:45:28.130Z,81.63
2018-12-15T06:47:58.098Z,81.81
2018-12-15T06:50:28.820Z,81.61
2018-12-15T06:52:59.111Z,81.14
2018-12-15T06:55:29.338Z,81.53
2018-12-15T06:57:59.958Z,81.63
2018-12-15T07:00:30.107Z,81.37
2018-12-15T07:03:00.810Z,81.39
2018-12-15T07:05:31.116Z,80.97
2018-12-15T07:08:01.253Z,81.31
2018-12-15T07:10:31.269Z,80.80
2018-12-15T07:13:01.325Z,80.93
2018-12-15T07:15:31.554Z,80.64
2018-12-15T07:18:02.769Z,80.28
2018-12-15T07:20:33.422Z,79.97
2018-12-15T07:23:04.136Z,79.44
2018-12-15T07:25:35.207Z,79.76
2018-12-15T07:28:06.498Z,79.45
2018-12-15T07:30:36.956Z,79.25
2018-12-15T07:33:07.123Z,79.55
2018-12-15T07:35:37.847Z,78.81
2018-12-15T07:38:08.003Z,78.82
2018-12-15T07:40:38.321Z,79.76
2018-12-15T07:43:08.393Z,79.25
2018-12-15T07:45:39.092Z,79.32
2018-12-15T07:48:09.223Z,78.76
2018-12-15T07:50:40.420Z,78.84
2018-12-15T07:53:10.526Z,79.12
2018-12-15T07:55:40.681Z,79.21
2018-12-15T07:58:10.913Z,78.02
2018-12-15T08:00:41.565Z,77.72
2018-12-15T08:03:11.721Z,77.64
2018-12-15T08:05:41.954Z,77.89
2018-12-15T08:08:12.194Z,78.08
2018-12-15T08:10:48.914Z,76.92
2018-12-15T08:13:32.932Z,77.29
2018-12-15T08:16:03.177Z,76.95
2018-12-15T08:18:36.470Z,77.56
2018-12-15T08:21:06.747Z,76.82
2018-12-15T08:23:37.318Z,77.15
2018-12-15T08:26:07.559Z,76.44
2018-12-15T08:28:38.221Z,76.12
2018-12-15T08:31:08.490Z,75.84
2018-12-15T08:33:38.737Z,76.45
2018-12-15T08:36:09.224Z,76.05
2018-12-15T08:38:39.495Z,75.75
2018-12-15T08:41:10.131Z,74.83
2018-12-15T08:43:40.282Z,75.43
2018-12-15T08:46:14.336Z,75.53
2018-12-15T08:48:45.091Z,75.52
2018-12-15T08:51:15.481Z,75.36
2018-12-15T08:53:46.870Z,75.04
2018-12-15T08:56:17.079Z,75.18
2018-12-15T08:58:47.875Z,74.23
2018-12-15T09:01:18.151Z,74.27
2018-12-15T09:03:49.004Z,74.51
2018-12-15T09:06:19.959Z,73.60
2018-12-15T09:08:51.808Z,73.18
2018-12-15T09:11:22.001Z,74.07
2018-12-15T09:13:52.775Z,74.18
2018-12-15T09:16:26.370Z,73.34
2018-12-15T09:18:55.080Z,74.10
2018-12-15T09:21:26.602Z,72.71
2018-12-15T09:23:56.451Z,72.97
2018-12-15T09:26:26.353Z,72.85
2018-12-15T09:28:56.220Z,71.64
2018-12-15T09:31:26.158Z,72.11
2018-12-15T09:33:56.925Z,72.23
2018-12-15T09:36:27.437Z,72.17
2018-12-15T09:38:59.588Z,72.03
2018-12-15T09:41:30.665Z,71.70
2018-12-15T09:44:00.629Z,71.58
2018-12-15T09:46:31.556Z,70.96
2018-12-15T09:49:02.806Z,70.19
2018-12-15T09:51:33.587Z,70.13
2018-12-15T09:54:03.781Z,69.75
2018-12-15T09:56:34.001Z,70.03
2018-12-15T09:59:04.631Z,69.35
2018-12-15T10:01:34.960Z,69.88
2018-12-15T10:04:05.881Z,70.27
2018-12-15T10:06:36.140Z,69.57
2018-12-15T10:09:07.777Z,70.10
2018-12-15T10:11:39.013Z,69.29
2018-12-15T10:14:09.654Z,69.34
2018-12-15T10:16:40.817Z,69.00
2018-12-15T10:19:10.842Z,69.02
2018-12-15T10:21:41.699Z,69.16
2018-12-15T10:24:11.823Z,69.52
2018-12-15T10:26:43.349Z,69.47
2018-12-15T10:29:18.443Z,69.38
2018-12-15T10:31:53.545Z,70.36
2018-12-15T10:34:23.651Z,70.18
2018-12-15T10:36:54.441Z,69.88
2018-12-15T10:39:24.693Z,69.39
2018-12-15T10:41:54.842Z,70.42
2018-12-15T10:44:25.357Z,70.96
2018-12-15T10:46:57.260Z,69.87
2018-12-15T10:49:30.830Z,70.29
2018-12-15T10:52:00.342Z,70.98
2018-12-15T10:54:30.403Z,70.68
2018-12-15T10:57:01.039Z,69.92
2018-12-15T10:59:31.039Z,70.24
2018-12-15T11:02:01.954Z,70.44
2018-12-15T11:04:32.101Z,70.47
2018-12-15T11:07:02.224Z,70.96
2018-12-15T11:09:32.358Z,69.96
2018-12-15T11:12:02.385Z,70.50
2018-12-15T11:14:32.419Z,70.36
2018-12-15T11:17:03.772Z,70.44
2018-12-15T11:19:37.176Z,70.68
2018-12-15T11:22:08.165Z,70.67
2018-12-15T11:24:39.235Z,71.67
2018-12-15T11:27:09.846Z,71.22
2018-12-15T11:29:40.195Z,71.70
2018-12-15T11:32:10.859Z,71.81
2018-12-15T11:34:40.754Z,72.63
2018-12-15T11:37:11.384Z,72.37
2018-12-15T11:39:41.642Z,72.62
2018-12-15T11:42:11.786Z,73.18
2018-12-15T11:44:42.485Z,72.46
2018-12-15T11:47:13.823Z,72.85
2018-12-15T11:49:43.918Z,72.06
2018-12-15T11:52:14.487Z,72.04
2018-12-15T11:54:45.133Z,72.59
2018-12-15T11:57:15.191Z,72.17
2018-12-15T11:59:47.030Z,72.71
2018-12-15T12:02:18.252Z,72.86
2018-12-15T12:04:48.905Z,72.93
2018-12-15T12:07:18.955Z,73.07
2018-12-15T12:09:48.988Z,73.61
2018-12-15T12:12:19.265Z,73.38
2018-12-15T12:14:50.133Z,73.47
2018-12-15T12:17:20.950Z,73.20
2018-12-15T12:19:50.939Z,73.72
2018-12-15T12:22:21.132Z,73.79
2018-12-15T12:24:51.377Z,74.01
2018-12-15T12:27:21.705Z,72.56
2018-12-15T12:29:51.766Z,72.02
2018-12-15T12:32:23.217Z,72.23
2018-12-15T12:34:53.872Z,72.07
2018-12-15T12:37:25.343Z,71.54
2018-12-15T12:39:56.310Z,72.38
2018-12-15T12:42:26.604Z,72.05
2018-12-15T12:44:56.602Z,71.42
2018-12-15T12:47:28.138Z,69.89
2018-12-15T12:49:58.696Z,70.29
2018-12-15T12:52:30.242Z,70.10
2018-12-15T12:55:01.495Z,69.64
2018-12-15T12:57:34.036Z,69.50
2018-12-15T13:00:04.538Z,70.53
2018-12-15T13:02:34.839Z,70.05
2018-12-15T13:05:05.977Z,69.98
2018-12-15T13:07:36.140Z,70.73
2018-12-15T13:10:06.692Z,70.65
2018-12-15T13:12:36.947Z,70.34
2018-12-15T13:15:07.706Z,71.06
2018-12-15T13:17:38.209Z,70.69
2018-12-15T13:20:08.840Z,71.61
2018-12-15T13:22:38.879Z,70.56
2018-12-15T13:25:09.810Z,70.75
2018-12-15T13:27:39.974Z,70.69
2018-12-15T13:30:11.774Z,70.50
2018-12-15T13:32:42.744Z,70.69
2018-12-15T13:35:12.846Z,69.25
2018-12-15T13:37:42.958Z,69.60
2018-12-15T13:40:13.153Z,70.85
2018-12-15T13:42:44.589Z,70.85
2018-12-15T13:45:14.741Z,70.84
2018-12-15T13:47:45.059Z,70.64
2018-12-15T13:50:14.981Z,69.80
2018-12-15T13:52:44.949Z,68.97
2018-12-15T13:55:14.856Z,69.53
2018-12-15T13:57:44.830Z,68.37
2018-12-15T14:00:14.717Z,68.79
2018-12-15T14:02:44.965Z,68.48
2018-12-15T14:05:15.598Z,70.10
2018-12-15T14:07:45.766Z,68.26
2018-12-15T14:10:15.880Z,67.54
2018-12-15T14:12:47.074Z,67.23
2018-12-15T14:15:17.223Z,67.03
2018-12-15T14:17:47.794Z,67.00
2018-12-15T14:20:18.060Z,66.99
2018-12-15T14:22:48.856Z,66.82
2018-12-15T14:25:18.825Z,65.97
2018-12-15T14:27:48.958Z,66.17
2018-12-15T14:30:20.519Z,66.23
2018-12-15T14:32:50.935Z,66.20
2018-12-15T14:35:20.877Z,66.30
2018-12-15T14:37:52.118Z,65.63
2018-12-15T14:40:22.274Z,65.46
2018-12-15T14:42:52.556Z,65.23
2018-12-15T14:45:23.331Z,64.78
2018-12-15T14:47:53.748Z,64.75
2018-12-15T14:50:24.364Z,64.11
2018-12-15T14:52:54.498Z,63.39
2018-12-15T14:55:25.080Z,63.89
2018-12-15T14:57:55.444Z,64.17
2018-12-15T15:00:27.118Z,63.74
2018-12-15T15:02:57.372Z,63.44
2018-12-15T15:05:27.613Z,62.82
2018-12-15T15:07:57.989Z,63.88
2018-12-15T15:10:28.214Z,64.20
2018-12-15T15:12:58.328Z,64.07
2018-12-15T15:15:28.537Z,63.92
2018-12-15T15:17:59.590Z,63.46
2018-12-15T15:20:30.297Z,63.75
2018-12-15T15:23:00.493Z,64.17
2018-12-15T15:25:31.098Z,64.43
2018-12-15T15:28:01.225Z,64.10
2018-12-15T15:30:31.394Z,65.06
2018-12-15T15:33:01.669Z,65.05
2018-12-15T15:35:31.911Z,65.01
2018-12-15T15:38:02.629Z,65.74
2018-12-15T15:40:32.767Z,65.90
2018-12-15T15:43:03.632Z,66.32
2018-12-15T15:45:33.769Z,66.61
2018-12-15T15:48:04.287Z,67.37
2018-12-15T15:50:36.633Z,67.84
2018-12-15T15:53:07.722Z,67.94
2018-12-15T15:55:38.440Z,68.04
2018-12-15T15:58:08.641Z,68.28
2018-12-15T16:00:39.417Z,68.84
2018-12-15T16:03:09.509Z,69.61
2018-12-15T16:05:40.264Z,69.58
2018-12-15T16:08:11.104Z,70.07
2018-12-15T16:10:41.277Z,70.32
2018-12-15T16:13:11.967Z,70.87
2018-12-15T16:15:42.621Z,71.31
2018-12-15T16:18:13.422Z,71.11
2018-12-15T16:20:43.714Z,71.42
2018-12-15T16:23:13.972Z,72.96
2018-12-15T16:25:44.198Z,73.49
2018-12-15T16:28:14.384Z,74.42
2018-12-15T16:30:45.162Z,74.59
2018-12-15T16:33:15.299Z,74.16
2018-12-15T16:35:46.055Z,74.13
2018-12-15T16:38:40.840Z,74.52
2018-12-15T16:41:11.375Z,75.05
2018-12-15T16:43:42.271Z,74.89
2018-12-15T16:46:12.411Z,75.26
2018-12-15T16:48:42.588Z,74.99
2018-12-15T16:51:13.701Z,75.15
2018-12-15T16:53:44.940Z,75.25
2018-12-15T16:56:15.035Z,75.50
2018-12-15T16:58:45.257Z,75.37
2018-12-15T17:01:15.595Z,75.36
2018-12-15T17:03:46.421Z,74.21
2018-12-15T17:06:17.071Z,74.22
2018-12-15T17:08:47.347Z,74.98
2018-12-15T17:11:17.944Z,74.50
2018-12-15T17:13:54.606Z,74.91
2018-12-15T17:16:24.728Z,74.57
2018-12-15T17:18:54.834Z,74.61
2018-12-15T17:21:24.917Z,75.09
2018-12-15T17:23:55.813Z,75.36
2018-12-15T17:26:25.957Z,74.92
2018-12-15T17:28:55.976Z,74.41
2018-12-15T17:31:26.776Z,74.96
2018-12-15T17:33:57.009Z,75.33
2018-12-15T17:36:27.256Z,74.89
2018-12-15T17:38:58.250Z,76.20
2018-12-15T17:41:28.521Z,75.37
2018-12-15T17:43:58.729Z,75.79
2018-12-15T17:46:28.903Z,75.84
2018-12-15T17:48:58.957Z,75.63
2018-12-15T17:51:29.060Z,76.18
2018-12-15T17:53:59.450Z,76.24
2018-12-15T17:56:29.587Z,76.71
2018-12-15T17:59:01.782Z,76.31
2018-12-15T18:01:31.878Z,75.98
2018-12-15T18:04:02.843Z,76.31
2018-12-15T18:06:33.052Z,76.43
2018-12-15T18:09:06.007Z,76.53
2018-12-15T18:11:36.200Z,76.29
2018-12-15T18:14:07.102Z,76.29
2018-12-15T18:16:37.262Z,76.63
2018-12-15T18:19:08.294Z,76.99
2018-12-15T18:21:38.395Z,77.01
2018-12-15T18:24:09.184Z,77.30
2018-12-15T18:26:39.307Z,76.86
2018-12-15T18:29:09.458Z,76.63
2018-12-15T18:31:39.654Z,76.86
2018-12-15T18:34:11.172Z,77.06
2018-12-15T18:36:41.402Z,76.62
2018-12-15T18:39:12.218Z,74.62
2018-12-15T18:41:42.336Z,73.94
2018-12-15T18:44:12.479Z,73.30
2018-12-15T18:46:42.740Z,71.90
2018-12-15T18:49:13.218Z,71.36
2018-12-15T18:51:43.778Z,71.19
2018-12-15T18:54:15.026Z,72.07
2018-12-15T18:56:45.687Z,71.95
2018-12-15T18:59:15.910Z,72.17
2018-12-15T19:01:46.765Z,71.98
2018-12-15T19:04:17.353Z,72.43
2018-12-15T19:06:47.317Z,72.87
2018-12-15T19:09:18.071Z,73.02
2018-12-15T19:11:48.389Z,72.76
2018-12-15T19:14:19.796Z,73.11
2018-12-15T19:16:50.366Z,72.26
2018-12-15T19:19:21.141Z,73.25
2018-12-15T19:21:51.170Z,73.55
2018-12-15T19:24:22.053Z,72.54
2018-12-15T19:26:52.433Z,72.52
2018-12-15T19:29:23.527Z,72.26
2018-12-15T19:31:54.364Z,72.89
2018-12-15T19:34:24.448Z,72.68
2018-12-15T19:36:54.711Z,72.93
2018-12-15T19:39:24.999Z,71.88
2018-12-15T19:41:55.911Z,72.02
2018-12-15T19:44:26.736Z,71.43
2018-12-15T19:46:56.775Z,72.11
2018-12-15T19:49:27.090Z,72.59
2018-12-15T19:51:57.265Z,72.25
2018-12-15T19:54:28.013Z,72.51
2018-12-15T19:56:58.295Z,73.10
2018-12-15T19:59:29.516Z,72.97
2018-12-15T20:01:59.621Z,72.43
2018-12-15T20:04:29.762Z,72.22
2018-12-15T20:07:00.095Z,71.95
2018-12-15T20:09:30.880Z,72.89
2018-12-15T20:12:01.040Z,72.34
2018-12-15T20:14:31.353Z,72.46
2018-12-15T20:17:02.344Z,72.16
2018-12-15T20:19:32.365Z,72.61
2018-12-15T20:22:02.497Z,72.12
2018-12-15T20:24:32.674Z,71.56
2018-12-15T20:27:03.483Z,70.58
2018-12-15T20:29:33.818Z,69.65
2018-12-15T20:32:04.130Z,69.33
2018-12-15T20:34:34.444Z,71.46
2018-12-15T20:37:04.702Z,71.40
2018-12-15T20:39:36.507Z,71.39
2018-12-15T20:42:07.195Z,71.68
2018-12-15T20:44:41.694Z,70.56
2018-12-15T20:47:11.176Z,72.05
2018-12-15T20:49:41.417Z,72.65
2018-12-15T20:52:12.242Z,72.27
2018-12-15T20:54:42.327Z,71.83
2018-12-15T20:57:13.118Z,71.84
2018-12-15T20:59:43.513Z,72.01
2018-12-15T21:02:13.644Z,70.90
2018-12-15T21:04:43.886Z,70.71
2018-12-15T21:07:13.977Z,70.64
2018-12-15T21:09:44.739Z,70.16
2018-12-15T21:12:14.947Z,70.58
2018-12-15T21:14:45.303Z,70.93
2018-12-15T21:17:15.427Z,71.07
2018-12-15T21:19:48.086Z,70.87
2018-12-15T21:22:17.695Z,70.82
2018-12-15T21:24:49.273Z,71.41
2018-12-15T21:27:19.878Z,69.51
2018-12-15T21:29:50.214Z,69.72
2018-12-15T21:32:20.488Z,69.66
2018-12-15T21:34:50.535Z,69.39
2018-12-15T21:37:20.704Z,69.25
2018-12-15T21:39:51.449Z,69.72
2018-12-15T21:42:21.545Z,70.73
2018-12-15T21:44:51.788Z,72.12
2018-12-15T21:47:22.514Z,73.56
2018-12-15T21:49:53.194Z,74.85
2018-12-15T21:52:23.197Z,75.51
2018-12-15T21:54:53.297Z,76.87
2018-12-15T21:57:23.338Z,77.57
2018-12-15T21:59:53.617Z,77.58
2018-12-15T22:02:24.616Z,77.94
2018-12-15T22:04:55.182Z,77.88
2018-12-15T22:07:25.982Z,78.47
2018-12-15T22:09:56.174Z,78.97
2018-12-15T22:12:26.947Z,78.10
2018-12-15T22:14:57.786Z,78.60
2018-12-15T22:17:27.909Z,78.82
2018-12-15T22:19:58.783Z,78.65
2018-12-15T22:22:28.753Z,79.28
2018-12-15T22:24:58.883Z,79.31
2018-12-15T22:27:29.054Z,79.21
2018-12-15T22:29:59.774Z,78.92
2018-12-15T22:32:29.954Z,79.20
2018-12-15T22:35:00.105Z,79.24
2018-12-15T22:37:30.209Z,78.71
2018-12-15T22:40:00.387Z,79.36
2018-12-15T22:42:30.599Z,79.14
2018-12-15T22:45:00.676Z,78.78
2018-12-15T22:47:31.522Z,78.51
2018-12-15T22:50:01.809Z,78.50
2018-12-15T22:52:32.586Z,78.86
2018-12-15T22:55:03.380Z,78.94
2018-12-15T22:57:34.578Z,79.26
2018-12-15T23:00:06.391Z,78.58
2018-12-15T23:02:37.221Z,79.28
2018-12-15T23:05:08.020Z,80.00
2018-12-15T23:07:38.793Z,79.39
2018-12-15T23:10:09.967Z,79.91
2018-12-15T23:12:40.780Z,80.31
2018-12-15T23:15:10.865Z,80.45
2018-12-15T23:17:41.008Z,80.67
2018-12-15T23:20:11.193Z,82.12
2018-12-15T23:22:41.976Z,81.87
2018-12-15T23:25:12.113Z,82.91
2018-12-15T23:27:42.406Z,82.73
2018-12-15T23:30:13.438Z,82.27
2018-12-15T23:32:43.489Z,82.37
2018-12-15T23:35:13.673Z,82.36
2018-12-15T23:37:43.956Z,82.20
2018-12-15T23:40:14.777Z,81.86
2018-12-15T23:42:46.245Z,81.57
2018-12-15T23:45:16.953Z,81.41
2018-12-15T23:47:47.664Z,80.69
2018-12-15T23:50:17.862Z,80.59
2018-12-15T23:52:48.640Z,80.99
2018-12-15T23:55:19.139Z,79.91
2018-12-15T23:57:49.561Z,80.09
